UAL209 LFPO-LFMN
Flight info
| Callsign | UAL209 |
|---|---|
| Flight time | 0h 42m |
| Altitude | 33000 |
| Route | LATRA DCT LAMUT DCT UTUVA DCT LERGA DCT LIQID DCT LATAM DCT TUNUR DCT NISAR |
| Aircraft | B738/M-SDE2E3FGHIRWXY/LB1 |
Departure
| Time | 2026-05-06 00:13 |
|---|---|
| Airport | Paris-Orly Airport (LFPO) |
Arrival
| Time | 2026-05-06 00:55 |
|---|---|
| Airport | Nice-Côte d'Azur Airport (LFMN) |
| Time | Latitude | Longitude | Altitude | Speed | Heading |
|---|---|---|---|---|---|
| 2026-05-06 00:13 | 48.56094 | 2.56595 | 11047 ft | 360 kts | 209° |
| 2026-05-06 00:13 | 48.53841 | 2.54814 | 11482 ft | 371 kts | 208° |
| 2026-05-06 00:13 | 48.51541 | 2.53023 | 12154 ft | 372 kts | 208° |
| 2026-05-06 00:13 | 48.48249 | 2.50482 | 13161 ft | 376 kts | 208° |
| 2026-05-06 00:14 | 48.43400 | 2.47293 | 14324 ft | 384 kts | 198° |
| 2026-05-06 00:14 | 48.38197 | 2.45137 | 15468 ft | 391 kts | 196° |
| 2026-05-06 00:14 | 48.32931 | 2.42841 | 16599 ft | 397 kts | 197° |
| 2026-05-06 00:14 | 48.27457 | 2.41608 | 17652 ft | 406 kts | 172° |
| 2026-05-06 00:15 | 48.22065 | 2.44281 | 18673 ft | 412 kts | 160° |
| 2026-05-06 00:15 | 48.16640 | 2.47259 | 19599 ft | 417 kts | 161° |
| 2026-05-06 00:15 | 48.11136 | 2.50195 | 20577 ft | 422 kts | 161° |
| 2026-05-06 00:15 | 48.01551 | 2.55102 | 22164 ft | 430 kts | 162° |
| 2026-05-06 00:16 | 47.90011 | 2.60688 | 23735 ft | 440 kts | 162° |
| 2026-05-06 00:16 | 47.78278 | 2.66413 | 25060 ft | 447 kts | 162° |
| 2026-05-06 00:16 | 47.66350 | 2.72237 | 26275 ft | 454 kts | 162° |
| 2026-05-06 00:16 | 47.54402 | 2.78033 | 27421 ft | 459 kts | 162° |
| 2026-05-06 00:17 | 47.42364 | 2.83847 | 29118 ft | 451 kts | 162° |
| 2026-05-06 00:17 | 47.30488 | 2.89556 | 30565 ft | 446 kts | 163° |
| 2026-05-06 00:17 | 47.18710 | 2.95195 | 31622 ft | 446 kts | 163° |
| 2026-05-06 00:17 | 47.06879 | 3.00690 | 32703 ft | 444 kts | 165° |
| 2026-05-06 00:18 | 46.94887 | 3.05494 | 33551 ft | 446 kts | 166° |
| 2026-05-06 00:18 | 46.82944 | 3.10304 | 34425 ft | 445 kts | 166° |
| 2026-05-06 00:18 | 46.71064 | 3.15163 | 35262 ft | 441 kts | 166° |
| 2026-05-06 00:18 | 46.59181 | 3.19988 | 35844 ft | 443 kts | 166° |
| 2026-05-06 00:19 | 46.47311 | 3.24780 | 36513 ft | 442 kts | 166° |
| 2026-05-06 00:19 | 46.35439 | 3.29553 | 36924 ft | 445 kts | 166° |
| 2026-05-06 00:19 | 46.23370 | 3.34382 | 36937 ft | 452 kts | 166° |
| 2026-05-06 00:20 | 45.99182 | 3.44002 | 36850 ft | 450 kts | 167° |
| 2026-05-06 00:20 | 45.75409 | 3.53702 | 36838 ft | 436 kts | 165° |
| 2026-05-06 00:21 | 45.52369 | 3.63660 | 36910 ft | 433 kts | 166° |
| 2026-05-06 00:21 | 45.29017 | 3.73673 | 36913 ft | 450 kts | 161° |
| 2026-05-06 00:21 | 45.21708 | 3.82679 | 36845 ft | 472 kts | 121° |
| 2026-05-06 00:22 | 45.20183 | 3.86782 | 36891 ft | 468 kts | 123° |
| 2026-05-06 00:22 | 45.16864 | 3.94631 | 36879 ft | 460 kts | 127° |
| 2026-05-06 00:23 | 45.13388 | 4.02205 | 36876 ft | 456 kts | 127° |
| 2026-05-06 00:23 | 45.09951 | 4.09663 | 36882 ft | 453 kts | 127° |
| 2026-05-06 00:24 | 45.04843 | 4.20761 | 36919 ft | 459 kts | 127° |
| 2026-05-06 00:24 | 44.96572 | 4.34500 | 36906 ft | 461 kts | 137° |
| 2026-05-06 00:25 | 44.87927 | 4.47620 | 36897 ft | 464 kts | 137° |
| 2026-05-06 00:25 | 44.79224 | 4.60913 | 36882 ft | 456 kts | 137° |
| 2026-05-06 00:26 | 44.71763 | 4.72247 | 36876 ft | 448 kts | 138° |
| 2026-05-06 00:26 | 44.68347 | 4.77422 | 36897 ft | 452 kts | 138° |
| 2026-05-06 00:27 | 44.64036 | 4.83934 | 36896 ft | 457 kts | 138° |
| 2026-05-06 00:27 | 44.59770 | 4.90652 | 36800 ft | 465 kts | 136° |
| 2026-05-06 00:27 | 44.57628 | 4.94104 | 36311 ft | 470 kts | 136° |
| 2026-05-06 00:28 | 44.55523 | 4.97499 | 35905 ft | 462 kts | 137° |
| 2026-05-06 00:28 | 44.53395 | 5.00907 | 35091 ft | 465 kts | 137° |
| 2026-05-06 00:28 | 44.51264 | 5.04300 | 34669 ft | 459 kts | 138° |
| 2026-05-06 00:28 | 44.49158 | 5.07642 | 33886 ft | 461 kts | 139° |
| 2026-05-06 00:29 | 44.47038 | 5.11009 | 33299 ft | 456 kts | 138° |
| 2026-05-06 00:29 | 44.44985 | 5.14293 | 33171 ft | 442 kts | 139° |
| 2026-05-06 00:29 | 44.42964 | 5.17519 | 32756 ft | 436 kts | 139° |
| 2026-05-06 00:29 | 44.40976 | 5.20684 | 32432 ft | 428 kts | 139° |
| 2026-05-06 00:30 | 44.39043 | 5.23756 | 32111 ft | 421 kts | 139° |
| 2026-05-06 00:30 | 44.37113 | 5.26775 | 31769 ft | 411 kts | 142° |
| 2026-05-06 00:30 | 44.34962 | 5.29379 | 31275 ft | 412 kts | 149° |
| 2026-05-06 00:30 | 44.32657 | 5.31826 | 30762 ft | 419 kts | 150° |
| 2026-05-06 00:31 | 44.30323 | 5.34261 | 30216 ft | 418 kts | 150° |
| 2026-05-06 00:31 | 44.28018 | 5.36696 | 29647 ft | 413 kts | 149° |
| 2026-05-06 00:31 | 44.25752 | 5.39127 | 29104 ft | 408 kts | 148° |
| 2026-05-06 00:31 | 44.23515 | 5.41549 | 28573 ft | 404 kts | 148° |
| 2026-05-06 00:32 | 44.21319 | 5.43938 | 28058 ft | 399 kts | 148° |
| 2026-05-06 00:32 | 44.19139 | 5.46310 | 27591 ft | 395 kts | 148° |
| 2026-05-06 00:32 | 44.16977 | 5.48655 | 27055 ft | 393 kts | 147° |
| 2026-05-06 00:32 | 44.14816 | 5.50994 | 26590 ft | 394 kts | 147° |
| 2026-05-06 00:33 | 44.12668 | 5.53314 | 26093 ft | 396 kts | 147° |
| 2026-05-06 00:33 | 44.10490 | 5.55666 | 25588 ft | 394 kts | 147° |
| 2026-05-06 00:33 | 44.08324 | 5.58006 | 25094 ft | 392 kts | 146° |
| 2026-05-06 00:33 | 44.06168 | 5.60335 | 24592 ft | 391 kts | 146° |
| 2026-05-06 00:34 | 44.04055 | 5.62617 | 24133 ft | 389 kts | 146° |
| 2026-05-06 00:34 | 44.01940 | 5.64898 | 23651 ft | 388 kts | 146° |
| 2026-05-06 00:34 | 43.99813 | 5.67191 | 23116 ft | 386 kts | 146° |
| 2026-05-06 00:34 | 43.97691 | 5.69476 | 22578 ft | 384 kts | 146° |
| 2026-05-06 00:35 | 43.95586 | 5.71741 | 22068 ft | 382 kts | 146° |
| 2026-05-06 00:35 | 43.93490 | 5.73995 | 21608 ft | 379 kts | 146° |
| 2026-05-06 00:35 | 43.91410 | 5.76230 | 21150 ft | 378 kts | 146° |
| 2026-05-06 00:35 | 43.89323 | 5.78468 | 20669 ft | 379 kts | 147° |
| 2026-05-06 00:36 | 43.87234 | 5.80705 | 20170 ft | 379 kts | 147° |
| 2026-05-06 00:36 | 43.85173 | 5.82911 | 19699 ft | 373 kts | 147° |
| 2026-05-06 00:36 | 43.83136 | 5.85089 | 19321 ft | 368 kts | 147° |
| 2026-05-06 00:36 | 43.81101 | 5.87257 | 18931 ft | 369 kts | 147° |
| 2026-05-06 00:37 | 43.79051 | 5.89436 | 18546 ft | 373 kts | 147° |
| 2026-05-06 00:37 | 43.76982 | 5.91635 | 18136 ft | 375 kts | 147° |
| 2026-05-06 00:37 | 43.75613 | 5.93092 | 17837 ft | 373 kts | 147° |
| 2026-05-06 00:37 | 43.72897 | 5.95984 | 17248 ft | 368 kts | 147° |
| 2026-05-06 00:38 | 43.71533 | 5.97436 | 16975 ft | 366 kts | 147° |
| 2026-05-06 00:38 | 43.68877 | 6.00259 | 16449 ft | 361 kts | 147° |
| 2026-05-06 00:38 | 43.67535 | 6.01685 | 16184 ft | 359 kts | 147° |
| 2026-05-06 00:38 | 43.65561 | 6.03779 | 15802 ft | 357 kts | 147° |
| 2026-05-06 00:39 | 43.63592 | 6.05864 | 15416 ft | 355 kts | 148° |
| 2026-05-06 00:39 | 43.61658 | 6.07909 | 15049 ft | 354 kts | 147° |
| 2026-05-06 00:39 | 43.59849 | 6.10228 | 14673 ft | 363 kts | 133° |
| 2026-05-06 00:39 | 43.58598 | 6.13311 | 14263 ft | 373 kts | 117° |
| 2026-05-06 00:40 | 43.57669 | 6.16654 | 13871 ft | 373 kts | 115° |
| 2026-05-06 00:40 | 43.56781 | 6.20012 | 13446 ft | 373 kts | 115° |
| 2026-05-06 00:40 | 43.55894 | 6.23369 | 12984 ft | 370 kts | 115° |
| 2026-05-06 00:40 | 43.55002 | 6.26695 | 12592 ft | 368 kts | 115° |
| 2026-05-06 00:41 | 43.54117 | 6.29952 | 12164 ft | 356 kts | 115° |
| 2026-05-06 00:41 | 43.53270 | 6.33044 | 11789 ft | 342 kts | 115° |
| 2026-05-06 00:41 | 43.52441 | 6.36050 | 11429 ft | 330 kts | 116° |
| 2026-05-06 00:41 | 43.51637 | 6.38951 | 11084 ft | 319 kts | 116° |
| 2026-05-06 00:42 | 43.50858 | 6.41758 | 10740 ft | 309 kts | 116° |
| 2026-05-06 00:42 | 43.49872 | 6.44289 | 10403 ft | 291 kts | 135° |
| 2026-05-06 00:42 | 43.48519 | 6.46275 | 10124 ft | 279 kts | 139° |
| 2026-05-06 00:42 | 43.47177 | 6.48165 | 9814 ft | 271 kts | 139° |
| 2026-05-06 00:43 | 43.45879 | 6.49998 | 9523 ft | 264 kts | 139° |
| 2026-05-06 00:43 | 43.44617 | 6.51792 | 9214 ft | 257 kts | 139° |
| 2026-05-06 00:43 | 43.43397 | 6.53539 | 8929 ft | 250 kts | 139° |
| 2026-05-06 00:43 | 43.42208 | 6.55246 | 8654 ft | 244 kts | 139° |
| 2026-05-06 00:44 | 43.41064 | 6.56888 | 8395 ft | 237 kts | 139° |
| 2026-05-06 00:44 | 43.39944 | 6.58498 | 8161 ft | 228 kts | 139° |
| 2026-05-06 00:44 | 43.38867 | 6.60048 | 7941 ft | 221 kts | 139° |
| 2026-05-06 00:44 | 43.37942 | 6.61707 | 7720 ft | 223 kts | 115° |
| 2026-05-06 00:45 | 43.37595 | 6.63805 | 7581 ft | 227 kts | 103° |
| 2026-05-06 00:45 | 43.37387 | 6.65969 | 7389 ft | 228 kts | 102° |
| 2026-05-06 00:45 | 43.37203 | 6.68135 | 7186 ft | 228 kts | 101° |
| 2026-05-06 00:45 | 43.37170 | 6.70320 | 6975 ft | 233 kts | 81° |
| 2026-05-06 00:46 | 43.37620 | 6.72462 | 6823 ft | 233 kts | 77° |
| 2026-05-06 00:46 | 43.38085 | 6.74597 | 6630 ft | 232 kts | 77° |
| 2026-05-06 00:46 | 43.38539 | 6.76688 | 6432 ft | 223 kts | 77° |
| 2026-05-06 00:46 | 43.38970 | 6.78662 | 6249 ft | 213 kts | 77° |
| 2026-05-06 00:47 | 43.39381 | 6.80541 | 6062 ft | 208 kts | 77° |
| 2026-05-06 00:47 | 43.39806 | 6.82482 | 5905 ft | 208 kts | 77° |
| 2026-05-06 00:47 | 43.40222 | 6.84388 | 5733 ft | 207 kts | 77° |
| 2026-05-06 00:47 | 43.40673 | 6.86264 | 5560 ft | 208 kts | 65° |
| 2026-05-06 00:48 | 43.41617 | 6.87759 | 5458 ft | 204 kts | 44° |
| 2026-05-06 00:48 | 43.42628 | 6.89138 | 5413 ft | 208 kts | 48° |
| 2026-05-06 00:48 | 43.43638 | 6.90569 | 5224 ft | 212 kts | 47° |
| 2026-05-06 00:48 | 43.44684 | 6.92036 | 5053 ft | 212 kts | 47° |
| 2026-05-06 00:49 | 43.45718 | 6.93476 | 4859 ft | 210 kts | 47° |
| 2026-05-06 00:49 | 43.46726 | 6.94874 | 4683 ft | 207 kts | 47° |
| 2026-05-06 00:49 | 43.47702 | 6.96226 | 4528 ft | 203 kts | 47° |
| 2026-05-06 00:49 | 43.48657 | 6.97549 | 4521 ft | 197 kts | 47° |
| 2026-05-06 00:50 | 43.49656 | 6.98935 | 4307 ft | 208 kts | 47° |
| 2026-05-06 00:50 | 43.50650 | 7.00313 | 4044 ft | 206 kts | 47° |
| 2026-05-06 00:50 | 43.51620 | 7.01656 | 3794 ft | 194 kts | 47° |
| 2026-05-06 00:50 | 43.52543 | 7.02933 | 3517 ft | 183 kts | 47° |
| 2026-05-06 00:51 | 43.53411 | 7.04133 | 3282 ft | 172 kts | 48° |
| 2026-05-06 00:51 | 43.54233 | 7.05271 | 3106 ft | 162 kts | 47° |
| 2026-05-06 00:51 | 43.55018 | 7.06356 | 2889 ft | 159 kts | 48° |
| 2026-05-06 00:51 | 43.55798 | 7.07438 | 2658 ft | 159 kts | 49° |
| 2026-05-06 00:52 | 43.56580 | 7.08518 | 2462 ft | 159 kts | 49° |
| 2026-05-06 00:52 | 43.57358 | 7.09596 | 2233 ft | 159 kts | 49° |
| 2026-05-06 00:52 | 43.58133 | 7.10665 | 2005 ft | 154 kts | 48° |
| 2026-05-06 00:52 | 43.58883 | 7.11702 | 1820 ft | 153 kts | 46° |
| 2026-05-06 00:53 | 43.59638 | 7.12749 | 1587 ft | 153 kts | 46° |
| 2026-05-06 00:53 | 43.60378 | 7.13771 | 1374 ft | 149 kts | 45° |
| 2026-05-06 00:53 | 43.61110 | 7.14782 | 1180 ft | 152 kts | 44° |
| 2026-05-06 00:53 | 43.61862 | 7.15821 | 972 ft | 153 kts | 44° |
| 2026-05-06 00:54 | 43.62605 | 7.16846 | 757 ft | 148 kts | 44° |
| 2026-05-06 00:54 | 43.63328 | 7.17844 | 573 ft | 146 kts | 45° |
| 2026-05-06 00:54 | 43.64046 | 7.18837 | 378 ft | 145 kts | 46° |
| 2026-05-06 00:54 | 43.64751 | 7.19810 | 191 ft | 142 kts | 47° |
| 2026-05-06 00:55 | 43.65439 | 7.20770 | 27 ft | 134 kts | 44° |
| 2026-05-06 00:55 | 43.66018 | 7.21556 | 16 ft | 96 kts | 48° |
| 2026-05-06 00:55 | 43.66313 | 7.21951 | 22 ft | 39 kts | 30° |
| 2026-05-06 00:55 | 43.66458 | 7.22038 | 18 ft | 11 kts | 20° |
| 2026-05-06 00:56 | 43.66515 | 7.22044 | 17 ft | 9 kts | 347° |
| 2026-05-06 00:56 | 43.66547 | 7.21981 | 17 ft | 10 kts | 262° |
| 2026-05-06 00:56 | 43.66536 | 7.21877 | 18 ft | 12 kts | 268° |
| 2026-05-06 00:56 | 43.66562 | 7.21801 | 19 ft | 9 kts | 313° |
| 2026-05-06 00:57 | 43.66579 | 7.21741 | 19 ft | 6 kts | 234° |
| 2026-05-06 00:57 | 43.66539 | 7.21683 | 20 ft | 10 kts | 227° |
| 2026-05-06 00:57 | 43.66530 | 7.21594 | 19 ft | 6 kts | 296° |
| 2026-05-06 00:57 | 43.66539 | 7.21577 | 22 ft | 0 kts | 311° |